ZIW YBGD-YSHK

Flight info

Callsign ZIW
Flight time 1h 43m
Altitude 6000
Route ENSID
Aircraft DA42/L-SBDGRY/S

Departure

Time 2026-04-29 23:23
Airport Boolgeeda (YBGD)

Arrival

Time 2026-04-30 01:06
Airport Shark Bay Airport (YSHK)
Time Latitude Longitude Altitude Speed Heading
2026-04-29 23:12 -22.54198 117.28008 1864 ft 0 kts 126°
2026-04-29 23:20 -22.54199 117.28011 1864 ft 1 kts 102°
2026-04-29 23:20 -22.54178 117.28015 1864 ft 6 kts
2026-04-29 23:21 -22.54128 117.28021 1865 ft 8 kts
2026-04-29 23:21 -22.54065 117.28020 1865 ft 7 kts 358°
2026-04-29 23:21 -22.54024 117.28016 1865 ft 3 kts 355°
2026-04-29 23:21 -22.54015 117.28015 1865 ft 0 kts 357°
2026-04-29 23:22 -22.53999 117.28014 1865 ft 8 kts 357°
2026-04-29 23:22 -22.53948 117.28008 1865 ft 6 kts 341°
2026-04-29 23:22 -22.53947 117.27924 1865 ft 39 kts 267°
2026-04-29 23:22 -22.53990 117.27391 1867 ft 92 kts 261°
2026-04-29 23:23 -22.54061 117.26689 2101 ft 96 kts 263°
2026-04-29 23:23 -22.54143 117.25951 2362 ft 108 kts 257°
2026-04-29 23:23 -22.54458 117.25201 2688 ft 111 kts 230°
2026-04-29 23:23 -22.55106 117.24752 3018 ft 112 kts 195°
2026-04-29 23:24 -22.55852 117.24616 3362 ft 111 kts 187°
2026-04-29 23:24 -22.56604 117.24365 3677 ft 115 kts 211°
2026-04-29 23:24 -22.57218 117.23813 3992 ft 117 kts 224°
2026-04-29 23:24 -22.57824 117.23216 4344 ft 117 kts 221°
2026-04-29 23:25 -22.58452 117.22663 4679 ft 118 kts 219°
2026-04-29 23:25 -22.59031 117.22042 4998 ft 120 kts 230°
2026-04-29 23:25 -22.59431 117.21583 5229 ft 121 kts 229°
2026-04-29 23:25 -22.60027 117.20928 5553 ft 124 kts 228°
2026-04-29 23:26 -22.60640 117.20274 5875 ft 126 kts 228°
2026-04-29 23:26 -22.61310 117.19569 5996 ft 145 kts 228°
2026-04-29 23:26 -22.62081 117.18763 6011 ft 161 kts 226°
2026-04-29 23:26 -22.62918 117.17899 6008 ft 170 kts 226°
2026-04-29 23:27 -22.63788 117.17004 6005 ft 174 kts 226°
2026-04-29 23:27 -22.64687 117.16081 6003 ft 177 kts 226°
2026-04-29 23:27 -22.65579 117.15164 6000 ft 178 kts 226°
2026-04-29 23:27 -22.66475 117.14246 5998 ft 178 kts 226°
2026-04-29 23:28 -22.67373 117.13319 5998 ft 178 kts 226°
2026-04-29 23:28 -22.68276 117.12394 5997 ft 178 kts 226°
2026-04-29 23:28 -22.69177 117.11460 5996 ft 178 kts 227°
2026-04-29 23:28 -22.70085 117.10529 5997 ft 179 kts 226°
2026-04-29 23:29 -22.70985 117.09602 5996 ft 178 kts 227°
2026-04-29 23:29 -22.71882 117.08679 5997 ft 178 kts 227°
2026-04-29 23:29 -22.72790 117.07744 5998 ft 179 kts 227°
2026-04-29 23:29 -22.73698 117.06809 5999 ft 178 kts 227°
2026-04-29 23:30 -22.74600 117.05881 5999 ft 179 kts 227°
2026-04-29 23:30 -22.75489 117.04961 6000 ft 178 kts 226°
2026-04-29 23:30 -22.76400 117.04024 6000 ft 178 kts 226°
2026-04-29 23:30 -22.77294 117.03103 6000 ft 178 kts 226°
2026-04-29 23:31 -22.78198 117.02170 5998 ft 178 kts 226°
2026-04-29 23:31 -22.79101 117.01241 5997 ft 178 kts 226°
2026-04-29 23:31 -22.79994 117.00320 5997 ft 178 kts 226°
2026-04-29 23:31 -22.80898 116.99386 5996 ft 178 kts 226°
2026-04-29 23:32 -22.81791 116.98465 5994 ft 178 kts 227°
2026-04-29 23:32 -22.82696 116.97530 5991 ft 178 kts 227°
2026-04-29 23:32 -22.83602 116.96596 5988 ft 178 kts 227°
2026-04-29 23:32 -22.84497 116.95672 5987 ft 178 kts 227°
2026-04-29 23:33 -22.85403 116.94735 5985 ft 178 kts 226°
2026-04-29 23:33 -22.86313 116.93796 5983 ft 178 kts 226°
2026-04-29 23:33 -22.87210 116.92867 5983 ft 179 kts 226°
2026-04-29 23:33 -22.88116 116.91934 5982 ft 179 kts 226°
2026-04-29 23:34 -22.89009 116.91010 5981 ft 179 kts 226°
2026-04-29 23:34 -22.89917 116.90073 5979 ft 178 kts 226°
2026-04-29 23:34 -22.90824 116.89138 5979 ft 178 kts 227°
2026-04-29 23:34 -22.91713 116.88216 5978 ft 178 kts 227°
2026-04-29 23:35 -22.92612 116.87287 5977 ft 178 kts 227°
2026-04-29 23:35 -22.93518 116.86351 5975 ft 178 kts 227°
2026-04-29 23:35 -22.94422 116.85414 5975 ft 178 kts 227°
2026-04-29 23:35 -22.95316 116.84488 5975 ft 179 kts 227°
2026-04-29 23:36 -22.96227 116.83545 5974 ft 179 kts 227°
2026-04-29 23:36 -22.97416 116.82310 5973 ft 178 kts 227°
2026-04-29 23:36 -22.98019 116.81687 5972 ft 178 kts 226°
2026-04-29 23:36 -22.98914 116.80762 5970 ft 178 kts 227°
2026-04-29 23:37 -22.99812 116.79833 5970 ft 178 kts 227°
2026-04-29 23:37 -23.00721 116.78890 5970 ft 178 kts 227°
2026-04-29 23:37 -23.01614 116.77963 5969 ft 177 kts 227°
2026-04-29 23:37 -23.02508 116.77040 5968 ft 178 kts 227°
2026-04-29 23:38 -23.03403 116.76112 5969 ft 177 kts 227°
2026-04-29 23:38 -23.04301 116.75180 5968 ft 178 kts 227°
2026-04-29 23:38 -23.05203 116.74246 5968 ft 178 kts 227°
2026-04-29 23:38 -23.06110 116.73306 5967 ft 178 kts 227°
2026-04-29 23:39 -23.07010 116.72370 5967 ft 178 kts 228°
2026-04-29 23:39 -23.07909 116.71437 5966 ft 178 kts 227°
2026-04-29 23:39 -23.08803 116.70509 5965 ft 178 kts 228°
2026-04-29 23:39 -23.09702 116.69579 5964 ft 178 kts 228°
2026-04-29 23:40 -23.10603 116.68640 5961 ft 178 kts 227°
2026-04-29 23:40 -23.11504 116.67703 5962 ft 178 kts 227°
2026-04-29 23:40 -23.12402 116.66773 5960 ft 178 kts 227°
2026-04-29 23:40 -23.13304 116.65837 5961 ft 178 kts 227°
2026-04-29 23:41 -23.14198 116.64907 5959 ft 178 kts 228°
2026-04-29 23:41 -23.15092 116.63976 5960 ft 178 kts 227°
2026-04-29 23:41 -23.15990 116.63044 5960 ft 178 kts 228°
2026-04-29 23:41 -23.16885 116.62114 5958 ft 178 kts 228°
2026-04-29 23:42 -23.17790 116.61173 5959 ft 178 kts 227°
2026-04-29 23:42 -23.18691 116.60235 5959 ft 178 kts 228°
2026-04-29 23:42 -23.19584 116.59306 5959 ft 178 kts 228°
2026-04-29 23:42 -23.20473 116.58380 5959 ft 178 kts 227°
2026-04-29 23:43 -23.21377 116.57441 5959 ft 178 kts 227°
2026-04-29 23:43 -23.22267 116.56515 5958 ft 177 kts 227°
2026-04-29 23:43 -23.23162 116.55584 5959 ft 177 kts 227°
2026-04-29 23:43 -23.24050 116.54660 5958 ft 177 kts 228°
2026-04-29 23:44 -23.24948 116.53725 5957 ft 177 kts 228°
2026-04-29 23:44 -23.25839 116.52794 5956 ft 177 kts 228°
2026-04-29 23:44 -23.26725 116.51870 5954 ft 177 kts 228°
2026-04-29 23:44 -23.27620 116.50941 5953 ft 177 kts 228°
2026-04-29 23:45 -23.28523 116.49998 5953 ft 177 kts 228°
2026-04-29 23:45 -23.29413 116.49068 5955 ft 177 kts 228°
2026-04-29 23:45 -23.30303 116.48141 5956 ft 177 kts 228°
2026-04-29 23:45 -23.31200 116.47208 5957 ft 177 kts 228°
2026-04-29 23:46 -23.32098 116.46271 5958 ft 178 kts 227°
2026-04-29 23:46 -23.32999 116.45328 5959 ft 177 kts 227°
2026-04-29 23:46 -23.33892 116.44398 5960 ft 177 kts 227°
2026-04-29 23:46 -23.34773 116.43477 5962 ft 177 kts 228°
2026-04-29 23:47 -23.35671 116.42540 5966 ft 176 kts 229°
2026-04-29 23:47 -23.36565 116.41609 5969 ft 176 kts 228°
2026-04-29 23:47 -23.37446 116.40688 5975 ft 176 kts 228°
2026-04-29 23:47 -23.38341 116.39754 5978 ft 176 kts 228°
2026-04-29 23:48 -23.39219 116.38833 5980 ft 176 kts 228°
2026-04-29 23:48 -23.40122 116.37891 5982 ft 176 kts 229°
2026-04-29 23:48 -23.41005 116.36968 5985 ft 176 kts 228°
2026-04-29 23:48 -23.41908 116.36028 5986 ft 177 kts 229°
2026-04-29 23:49 -23.42801 116.35090 5987 ft 177 kts 228°
2026-04-29 23:49 -23.43685 116.34164 5988 ft 177 kts 228°
2026-04-29 23:49 -23.44586 116.33221 5990 ft 176 kts 229°
2026-04-29 23:49 -23.45484 116.32286 5990 ft 177 kts 229°
2026-04-29 23:50 -23.46369 116.31357 5991 ft 177 kts 229°
2026-04-29 23:50 -23.47255 116.30432 5991 ft 176 kts 229°
2026-04-29 23:50 -23.49026 116.28577 5992 ft 176 kts 229°
2026-04-29 23:51 -23.49909 116.27652 5994 ft 176 kts 229°
2026-04-29 23:51 -23.50795 116.26724 5994 ft 176 kts 229°
2026-04-29 23:51 -23.51670 116.25807 5993 ft 176 kts 229°
2026-04-29 23:51 -23.52562 116.24874 5993 ft 176 kts 229°
2026-04-29 23:52 -23.53446 116.23946 5992 ft 176 kts 229°
2026-04-29 23:52 -23.54332 116.23016 5991 ft 176 kts 229°
2026-04-29 23:52 -23.55228 116.22079 5990 ft 176 kts 229°
2026-04-29 23:52 -23.56140 116.21122 5991 ft 176 kts 229°
2026-04-29 23:53 -23.57037 116.20179 5990 ft 176 kts 229°
2026-04-29 23:53 -23.57919 116.19255 5990 ft 176 kts 229°
2026-04-29 23:53 -23.58811 116.18317 5989 ft 176 kts 229°
2026-04-29 23:53 -23.59707 116.17378 5988 ft 176 kts 229°
2026-04-29 23:54 -23.60590 116.16454 5987 ft 176 kts 229°
2026-04-29 23:54 -23.61471 116.15527 5988 ft 176 kts 229°
2026-04-29 23:54 -23.62358 116.14599 5989 ft 175 kts 229°
2026-04-29 23:54 -23.63252 116.13659 5989 ft 175 kts 229°
2026-04-29 23:55 -23.64133 116.12731 5989 ft 175 kts 229°
2026-04-29 23:55 -23.65063 116.11752 5990 ft 175 kts 229°
2026-04-29 23:55 -23.65979 116.10789 5989 ft 175 kts 229°
2026-04-29 23:55 -23.66898 116.09826 5987 ft 175 kts 229°
2026-04-29 23:56 -23.67810 116.08865 5987 ft 175 kts 229°
2026-04-29 23:56 -23.68727 116.07903 5988 ft 175 kts 229°
2026-04-29 23:56 -23.69622 116.06960 5987 ft 175 kts 229°
2026-04-29 23:56 -23.70506 116.06030 5986 ft 175 kts 229°
2026-04-29 23:57 -23.71393 116.05097 5989 ft 175 kts 229°
2026-04-29 23:57 -23.72276 116.04167 5988 ft 175 kts 229°
2026-04-29 23:57 -23.73160 116.03239 5987 ft 174 kts 229°
2026-04-29 23:57 -23.74041 116.02309 5988 ft 174 kts 230°
2026-04-29 23:58 -23.74920 116.01386 5987 ft 174 kts 230°
2026-04-29 23:58 -23.75799 116.00460 5986 ft 173 kts 230°
2026-04-29 23:58 -23.76670 115.99541 5984 ft 173 kts 230°
2026-04-29 23:58 -23.77544 115.98618 5987 ft 174 kts 229°
2026-04-29 23:59 -23.78429 115.97686 5987 ft 174 kts 229°
2026-04-29 23:59 -23.79302 115.96768 5985 ft 174 kts 229°
2026-04-29 23:59 -23.80177 115.95843 5985 ft 174 kts 229°
2026-04-29 23:59 -23.81056 115.94913 5986 ft 175 kts 229°
2026-04-30 00:00 -23.81935 115.93990 5987 ft 175 kts 229°
2026-04-30 00:00 -23.82822 115.93056 5984 ft 175 kts 229°
2026-04-30 00:00 -23.83703 115.92123 5983 ft 175 kts 229°
2026-04-30 00:00 -23.84585 115.91193 5985 ft 175 kts 229°
2026-04-30 00:01 -23.85465 115.90266 5988 ft 174 kts 229°
2026-04-30 00:01 -23.86351 115.89329 5985 ft 174 kts 229°
2026-04-30 00:01 -23.87226 115.88407 5984 ft 174 kts 229°
2026-04-30 00:01 -23.88106 115.87477 5985 ft 174 kts 229°
2026-04-30 00:02 -23.88977 115.86553 5985 ft 174 kts 229°
2026-04-30 00:02 -23.89853 115.85627 5988 ft 174 kts 229°
2026-04-30 00:02 -23.90718 115.84718 5989 ft 174 kts 229°
2026-04-30 00:02 -23.91590 115.83793 5987 ft 174 kts 229°
2026-04-30 00:03 -23.92458 115.82876 5987 ft 173 kts 229°
2026-04-30 00:03 -23.93335 115.81950 5986 ft 173 kts 230°
2026-04-30 00:03 -23.94203 115.81030 5988 ft 173 kts 229°
2026-04-30 00:03 -23.95069 115.80117 5990 ft 173 kts 230°
2026-04-30 00:04 -23.95930 115.79203 5989 ft 173 kts 230°
2026-04-30 00:04 -23.96808 115.78276 5991 ft 173 kts 229°
2026-04-30 00:04 -23.97676 115.77354 5989 ft 173 kts 229°
2026-04-30 00:04 -23.98544 115.76436 5988 ft 173 kts 229°
2026-04-30 00:05 -23.99410 115.75520 5989 ft 173 kts 230°
2026-04-30 00:05 -24.00278 115.74599 5988 ft 173 kts 229°
2026-04-30 00:05 -24.01152 115.73676 5989 ft 173 kts 230°
2026-04-30 00:05 -24.02012 115.72762 5988 ft 172 kts 229°
2026-04-30 00:06 -24.02884 115.71841 5988 ft 172 kts 229°
2026-04-30 00:06 -24.03745 115.70924 5988 ft 172 kts 230°
2026-04-30 00:06 -24.04586 115.69990 5988 ft 172 kts 231°
2026-04-30 00:06 -24.05424 115.69048 5988 ft 172 kts 231°
2026-04-30 00:07 -24.06263 115.68110 5989 ft 172 kts 232°
2026-04-30 00:07 -24.07096 115.67172 5989 ft 173 kts 231°
2026-04-30 00:07 -24.07943 115.66220 5988 ft 173 kts 231°
2026-04-30 00:07 -24.08778 115.65278 5988 ft 173 kts 231°
2026-04-30 00:08 -24.09629 115.64325 5989 ft 173 kts 232°
2026-04-30 00:08 -24.10465 115.63381 5986 ft 173 kts 231°
2026-04-30 00:08 -24.11308 115.62433 5984 ft 173 kts 231°
2026-04-30 00:08 -24.12149 115.61489 5983 ft 173 kts 231°
2026-04-30 00:09 -24.12998 115.60533 5983 ft 173 kts 231°
2026-04-30 00:09 -24.13844 115.59585 5982 ft 173 kts 231°
2026-04-30 00:09 -24.14679 115.58643 5983 ft 173 kts 231°
2026-04-30 00:09 -24.15521 115.57692 5983 ft 173 kts 231°
2026-04-30 00:10 -24.16370 115.56741 5983 ft 173 kts 231°
2026-04-30 00:10 -24.17215 115.55790 5983 ft 174 kts 231°
2026-04-30 00:10 -24.18068 115.54831 5982 ft 174 kts 231°
2026-04-30 00:10 -24.18910 115.53881 5980 ft 174 kts 232°
2026-04-30 00:11 -24.19762 115.52918 5981 ft 173 kts 232°
2026-04-30 00:11 -24.20603 115.51971 5978 ft 173 kts 231°
2026-04-30 00:11 -24.21441 115.51032 5980 ft 173 kts 231°
2026-04-30 00:11 -24.22280 115.50085 5980 ft 173 kts 231°
2026-04-30 00:12 -24.23124 115.49131 5981 ft 173 kts 232°
2026-04-30 00:12 -24.23955 115.48190 5980 ft 173 kts 231°
2026-04-30 00:12 -24.24797 115.47240 5979 ft 173 kts 231°
2026-04-30 00:12 -24.25645 115.46287 5979 ft 173 kts 232°
2026-04-30 00:13 -24.26486 115.45336 5980 ft 173 kts 232°
2026-04-30 00:13 -24.27334 115.44381 5978 ft 173 kts 231°
2026-04-30 00:13 -24.28177 115.43431 5979 ft 174 kts 231°
2026-04-30 00:13 -24.29012 115.42486 5980 ft 174 kts 232°
2026-04-30 00:14 -24.29858 115.41527 5982 ft 173 kts 232°
2026-04-30 00:14 -24.30691 115.40588 5980 ft 173 kts 232°
2026-04-30 00:14 -24.31532 115.39638 5980 ft 172 kts 232°
2026-04-30 00:14 -24.32371 115.38691 5979 ft 172 kts 232°
2026-04-30 00:15 -24.33206 115.37749 5982 ft 172 kts 232°
2026-04-30 00:15 -24.34048 115.36798 5984 ft 172 kts 232°
2026-04-30 00:15 -24.34874 115.35863 5985 ft 172 kts 232°
2026-04-30 00:15 -24.35716 115.34910 5984 ft 172 kts 232°
2026-04-30 00:16 -24.36552 115.33961 5985 ft 173 kts 232°
2026-04-30 00:16 -24.37395 115.33006 5987 ft 173 kts 232°
2026-04-30 00:16 -24.38230 115.32061 5988 ft 173 kts 232°
2026-04-30 00:16 -24.39079 115.31105 5989 ft 174 kts 232°
2026-04-30 00:17 -24.39924 115.30145 5987 ft 174 kts 232°
2026-04-30 00:17 -24.40769 115.29191 5985 ft 174 kts 232°
2026-04-30 00:17 -24.41613 115.28234 5987 ft 174 kts 232°
2026-04-30 00:17 -24.42459 115.27274 5987 ft 174 kts 232°
2026-04-30 00:18 -24.43295 115.26327 5987 ft 174 kts 232°
2026-04-30 00:18 -24.44142 115.25369 5986 ft 174 kts 232°
2026-04-30 00:18 -24.44982 115.24416 5987 ft 174 kts 232°
2026-04-30 00:18 -24.45836 115.23450 5986 ft 174 kts 233°
2026-04-30 00:19 -24.46669 115.22504 5986 ft 173 kts 233°
2026-04-30 00:19 -24.47517 115.21543 5986 ft 173 kts 232°
2026-04-30 00:19 -24.48346 115.20602 5985 ft 173 kts 232°
2026-04-30 00:19 -24.49199 115.19631 5982 ft 174 kts 232°
2026-04-30 00:20 -24.50042 115.18675 5979 ft 174 kts 232°
2026-04-30 00:20 -24.50878 115.17726 5979 ft 174 kts 232°
2026-04-30 00:20 -24.51727 115.16762 5980 ft 174 kts 232°
2026-04-30 00:20 -24.52570 115.15804 5979 ft 174 kts 232°
2026-04-30 00:21 -24.53418 115.14841 5981 ft 174 kts 232°
2026-04-30 00:21 -24.54266 115.13879 5982 ft 174 kts 232°
2026-04-30 00:21 -24.55111 115.12920 5983 ft 174 kts 232°
2026-04-30 00:21 -24.55961 115.11955 5980 ft 174 kts 232°
2026-04-30 00:22 -24.56805 115.10995 5978 ft 174 kts 232°
2026-04-30 00:22 -24.57637 115.10048 5974 ft 174 kts 232°
2026-04-30 00:22 -24.58479 115.09090 5972 ft 174 kts 231°
2026-04-30 00:22 -24.59320 115.08134 5973 ft 173 kts 232°
2026-04-30 00:23 -24.60159 115.07181 5974 ft 174 kts 232°
2026-04-30 00:23 -24.60999 115.06225 5975 ft 174 kts 232°
2026-04-30 00:23 -24.61846 115.05263 5973 ft 174 kts 232°
2026-04-30 00:23 -24.62691 115.04299 5974 ft 174 kts 232°
2026-04-30 00:24 -24.63526 115.03347 5974 ft 174 kts 232°
2026-04-30 00:24 -24.64375 115.02378 5975 ft 174 kts 232°
2026-04-30 00:24 -24.65215 115.01421 5976 ft 175 kts 232°
2026-04-30 00:24 -24.66063 115.00454 5976 ft 175 kts 232°
2026-04-30 00:25 -24.66911 114.99488 5979 ft 175 kts 232°
2026-04-30 00:25 -24.67754 114.98525 5979 ft 174 kts 232°
2026-04-30 00:25 -24.68597 114.97566 5978 ft 174 kts 232°
2026-04-30 00:25 -24.69442 114.96606 5976 ft 174 kts 231°
2026-04-30 00:26 -24.70283 114.95645 5976 ft 174 kts 232°
2026-04-30 00:26 -24.71129 114.94681 5975 ft 174 kts 232°
2026-04-30 00:26 -24.71974 114.93722 5976 ft 174 kts 232°
2026-04-30 00:26 -24.72805 114.92771 5978 ft 174 kts 232°
2026-04-30 00:27 -24.73645 114.91811 5978 ft 174 kts 232°
2026-04-30 00:27 -24.74484 114.90850 5978 ft 173 kts 232°
2026-04-30 00:27 -24.75326 114.89890 5977 ft 173 kts 232°
2026-04-30 00:27 -24.76164 114.88931 5975 ft 173 kts 232°
2026-04-30 00:28 -24.77006 114.87968 5973 ft 174 kts 232°
2026-04-30 00:28 -24.77847 114.87006 5974 ft 174 kts 231°
2026-04-30 00:28 -24.78683 114.86052 5975 ft 174 kts 231°
2026-04-30 00:28 -24.79516 114.85100 5974 ft 174 kts 232°
2026-04-30 00:29 -24.80360 114.84135 5973 ft 174 kts 231°
2026-04-30 00:29 -24.81196 114.83183 5972 ft 173 kts 232°
2026-04-30 00:29 -24.82039 114.82218 5972 ft 173 kts 232°
2026-04-30 00:29 -24.82878 114.81258 5973 ft 173 kts 232°
2026-04-30 00:30 -24.83703 114.80312 5971 ft 173 kts 232°
2026-04-30 00:30 -24.84539 114.79357 5970 ft 172 kts 232°
2026-04-30 00:30 -24.85377 114.78396 5970 ft 173 kts 232°
2026-04-30 00:30 -24.86215 114.77438 5968 ft 173 kts 232°
2026-04-30 00:31 -24.87051 114.76479 5967 ft 173 kts 231°
2026-04-30 00:31 -24.87885 114.75519 5969 ft 173 kts 231°
2026-04-30 00:31 -24.88723 114.74562 5969 ft 173 kts 231°
2026-04-30 00:31 -24.89553 114.73611 5967 ft 173 kts 231°
2026-04-30 00:32 -24.90390 114.72652 5966 ft 173 kts 231°
2026-04-30 00:32 -24.91229 114.71689 5967 ft 173 kts 231°
2026-04-30 00:32 -24.92070 114.70729 5966 ft 173 kts 232°
2026-04-30 00:32 -24.92903 114.69772 5968 ft 173 kts 232°
2026-04-30 00:33 -24.93737 114.68814 5967 ft 173 kts 232°
2026-04-30 00:33 -24.94572 114.67858 5968 ft 173 kts 232°
2026-04-30 00:33 -24.95412 114.66890 5968 ft 173 kts 231°
2026-04-30 00:33 -24.96238 114.65945 5968 ft 173 kts 231°
2026-04-30 00:34 -24.97076 114.64982 5968 ft 173 kts 231°
2026-04-30 00:34 -24.97912 114.64020 5968 ft 172 kts 231°
2026-04-30 00:34 -24.98739 114.63066 5965 ft 172 kts 231°
2026-04-30 00:34 -24.99567 114.62120 5963 ft 172 kts 231°
2026-04-30 00:35 -25.00400 114.61166 5965 ft 172 kts 232°
2026-04-30 00:35 -25.01231 114.60208 5965 ft 172 kts 232°
2026-04-30 00:35 -25.02069 114.59245 5966 ft 173 kts 231°
2026-04-30 00:35 -25.02899 114.58287 5965 ft 173 kts 231°
2026-04-30 00:36 -25.03726 114.57336 5964 ft 173 kts 231°
2026-04-30 00:36 -25.04566 114.56371 5966 ft 173 kts 231°
2026-04-30 00:36 -25.05405 114.55406 5965 ft 173 kts 232°
2026-04-30 00:36 -25.06239 114.54450 5965 ft 173 kts 231°
2026-04-30 00:37 -25.07071 114.53488 5965 ft 173 kts 231°
2026-04-30 00:37 -25.07904 114.52530 5966 ft 172 kts 232°
2026-04-30 00:37 -25.08726 114.51584 5965 ft 172 kts 231°
2026-04-30 00:37 -25.09556 114.50627 5967 ft 172 kts 231°
2026-04-30 00:38 -25.10386 114.49670 5964 ft 172 kts 231°
2026-04-30 00:38 -25.11218 114.48713 5961 ft 172 kts 232°
2026-04-30 00:38 -25.12043 114.47762 5961 ft 171 kts 231°
2026-04-30 00:38 -25.12870 114.46812 5962 ft 171 kts 232°
2026-04-30 00:39 -25.13697 114.45856 5960 ft 171 kts 232°
2026-04-30 00:39 -25.14521 114.44905 5960 ft 171 kts 232°
2026-04-30 00:39 -25.15349 114.43951 5964 ft 172 kts 232°
2026-04-30 00:39 -25.16174 114.42997 5960 ft 172 kts 231°
2026-04-30 00:40 -25.17001 114.42043 5960 ft 171 kts 231°
2026-04-30 00:40 -25.17823 114.41090 5960 ft 171 kts 231°
2026-04-30 00:40 -25.18654 114.40136 5959 ft 171 kts 231°
2026-04-30 00:40 -25.19479 114.39186 5961 ft 171 kts 231°
2026-04-30 00:41 -25.20292 114.38247 5958 ft 171 kts 231°
2026-04-30 00:41 -25.21115 114.37296 5959 ft 171 kts 231°
2026-04-30 00:41 -25.21941 114.36340 5962 ft 171 kts 232°
2026-04-30 00:41 -25.22766 114.35385 5962 ft 171 kts 231°
2026-04-30 00:42 -25.23583 114.34440 5961 ft 171 kts 231°
2026-04-30 00:42 -25.24412 114.33483 5957 ft 171 kts 232°
2026-04-30 00:42 -25.25228 114.32539 5960 ft 171 kts 232°
2026-04-30 00:42 -25.26057 114.31580 5961 ft 171 kts 232°
2026-04-30 00:43 -25.26872 114.30637 5960 ft 171 kts 231°
2026-04-30 00:43 -25.27697 114.29681 5959 ft 170 kts 231°
2026-04-30 00:43 -25.28513 114.28739 5960 ft 170 kts 232°
2026-04-30 00:43 -25.29340 114.27784 5958 ft 170 kts 232°
2026-04-30 00:44 -25.30159 114.26833 5957 ft 170 kts 232°
2026-04-30 00:44 -25.30977 114.25886 5961 ft 170 kts 231°
2026-04-30 00:44 -25.31797 114.24936 5961 ft 170 kts 232°
2026-04-30 00:44 -25.32609 114.23995 5960 ft 170 kts 232°
2026-04-30 00:45 -25.33432 114.23040 5958 ft 170 kts 231°
2026-04-30 00:45 -25.34529 114.21774 5959 ft 170 kts 232°
2026-04-30 00:45 -25.35070 114.21142 5959 ft 170 kts 232°
2026-04-30 00:45 -25.35896 114.20184 5957 ft 170 kts 232°
2026-04-30 00:46 -25.36712 114.19241 5958 ft 170 kts 232°
2026-04-30 00:46 -25.37534 114.18282 5959 ft 170 kts 232°
2026-04-30 00:46 -25.38354 114.17333 5957 ft 171 kts 232°
2026-04-30 00:46 -25.39173 114.16382 5960 ft 171 kts 232°
2026-04-30 00:47 -25.39989 114.15434 5959 ft 171 kts 232°
2026-04-30 00:47 -25.40816 114.14475 5958 ft 170 kts 232°
2026-04-30 00:47 -25.41629 114.13533 5957 ft 170 kts 232°
2026-04-30 00:47 -25.42448 114.12583 5957 ft 169 kts 232°
2026-04-30 00:48 -25.43253 114.11647 5954 ft 170 kts 232°
2026-04-30 00:48 -25.44075 114.10690 5958 ft 170 kts 232°
2026-04-30 00:48 -25.44885 114.09748 5957 ft 170 kts 232°
2026-04-30 00:48 -25.45710 114.08790 5958 ft 170 kts 232°
2026-04-30 00:49 -25.46524 114.07841 5961 ft 170 kts 231°
2026-04-30 00:49 -25.47342 114.06887 5957 ft 170 kts 231°
2026-04-30 00:49 -25.48151 114.05950 5956 ft 170 kts 232°
2026-04-30 00:49 -25.48971 114.04999 5958 ft 169 kts 231°
2026-04-30 00:50 -25.49845 114.04120 5944 ft 175 kts 212°
2026-04-30 00:50 -25.50982 114.03612 5957 ft 175 kts 206°
2026-04-30 00:50 -25.52136 114.03130 5956 ft 177 kts 205°
2026-04-30 00:50 -25.53284 114.02658 5956 ft 178 kts 205°
2026-04-30 00:51 -25.54455 114.02177 5958 ft 178 kts 205°
2026-04-30 00:51 -25.55614 114.01695 5956 ft 178 kts 205°
2026-04-30 00:51 -25.56788 114.01208 5957 ft 178 kts 205°
2026-04-30 00:51 -25.57948 114.00725 5957 ft 178 kts 205°
2026-04-30 00:52 -25.59114 114.00243 5958 ft 178 kts 205°
2026-04-30 00:52 -25.60279 113.99754 5955 ft 178 kts 205°
2026-04-30 00:52 -25.61446 113.99274 5956 ft 178 kts 205°
2026-04-30 00:52 -25.62597 113.98798 5981 ft 177 kts 205°
2026-04-30 00:53 -25.63753 113.98316 6006 ft 176 kts 205°
2026-04-30 00:53 -25.64909 113.97839 6010 ft 177 kts 205°
2026-04-30 00:53 -25.66084 113.97351 6012 ft 178 kts 205°
2026-04-30 00:53 -25.67236 113.96869 6013 ft 178 kts 205°
2026-04-30 00:54 -25.68408 113.96390 6011 ft 178 kts 205°
2026-04-30 00:54 -25.69563 113.95912 6012 ft 178 kts 205°
2026-04-30 00:54 -25.70736 113.95425 5869 ft 181 kts 205°
2026-04-30 00:54 -25.71911 113.94927 5676 ft 180 kts 205°
2026-04-30 00:55 -25.73081 113.94441 5466 ft 178 kts 204°
2026-04-30 00:55 -25.74238 113.93944 5246 ft 176 kts 205°
2026-04-30 00:55 -25.76491 113.92956 4846 ft 173 kts 205°
2026-04-30 00:56 -25.77606 113.92458 4629 ft 172 kts 205°
2026-04-30 00:56 -25.78568 113.91706 4406 ft 168 kts 226°
2026-04-30 00:56 -25.79436 113.90822 4183 ft 169 kts 226°
2026-04-30 00:56 -25.80382 113.89473 3895 ft 167 kts 243°
2026-04-30 00:57 -25.80720 113.88705 3748 ft 166 kts 244°
2026-04-30 00:57 -25.81224 113.87528 3538 ft 169 kts 245°
2026-04-30 00:57 -25.81708 113.86350 3345 ft 170 kts 244°
2026-04-30 00:57 -25.82187 113.85141 3149 ft 170 kts 245°
2026-04-30 00:58 -25.82651 113.83941 2956 ft 171 kts 245°
2026-04-30 00:58 -25.83123 113.82714 2762 ft 173 kts 244°
2026-04-30 00:58 -25.83583 113.81476 2568 ft 176 kts 245°
2026-04-30 00:58 -25.84059 113.80222 2410 ft 175 kts 245°
2026-04-30 00:59 -25.84531 113.78970 2263 ft 175 kts 245°
2026-04-30 00:59 -25.84997 113.77715 2117 ft 175 kts 245°
2026-04-30 00:59 -25.85452 113.76466 1972 ft 174 kts 244°
2026-04-30 00:59 -25.85909 113.75222 1826 ft 175 kts 245°
2026-04-30 01:00 -25.86359 113.73978 1679 ft 175 kts 244°
2026-04-30 01:00 -25.86812 113.72728 1526 ft 175 kts 244°
2026-04-30 01:00 -25.87256 113.71471 1377 ft 175 kts 245°
2026-04-30 01:00 -25.87709 113.70212 1229 ft 176 kts 245°
2026-04-30 01:01 -25.88155 113.68946 1128 ft 174 kts 245°
2026-04-30 01:01 -25.88596 113.67711 1115 ft 170 kts 244°
2026-04-30 01:01 -25.89002 113.66487 1153 ft 166 kts 248°
2026-04-30 01:01 -25.89232 113.65230 1138 ft 169 kts 256°
2026-04-30 01:02 -25.89510 113.63953 1129 ft 168 kts 252°
2026-04-30 01:02 -25.89759 113.62698 1194 ft 165 kts 255°
2026-04-30 01:02 -25.90007 113.61436 1149 ft 168 kts 254°
2026-04-30 01:02 -25.89963 113.60196 1202 ft 163 kts 291°
2026-04-30 01:03 -25.89122 113.59377 1123 ft 165 kts 341°
2026-04-30 01:03 -25.88006 113.59207 1147 ft 151 kts 357°
2026-04-30 01:03 -25.87072 113.59152 1101 ft 121 kts
2026-04-30 01:03 -25.86292 113.59131 1121 ft 105 kts
2026-04-30 01:04 -25.85588 113.59035 1074 ft 102 kts 336°
2026-04-30 01:04 -25.85195 113.58459 950 ft 96 kts 265°
2026-04-30 01:04 -25.85326 113.57736 778 ft 93 kts 238°
2026-04-30 01:04 -25.85790 113.57447 685 ft 79 kts 175°
2026-04-30 01:05 -25.86319 113.57468 567 ft 75 kts 176°
2026-04-30 01:05 -25.86845 113.57490 482 ft 74 kts 174°
2026-04-30 01:05 -25.87345 113.57516 411 ft 71 kts 176°
2026-04-30 01:05 -25.87841 113.57523 305 ft 68 kts 172°
2026-04-30 01:06 -25.88310 113.57537 211 ft 64 kts 175°
2026-04-30 01:06 -25.88742 113.57552 143 ft 60 kts 173°
2026-04-30 01:06 -25.89147 113.57567 123 ft 43 kts 179°
2026-04-30 01:06 -25.89213 113.57573 123 ft 5 kts 349°
2026-04-30 01:07 -25.89126 113.57566 123 ft 15 kts 358°
2026-04-30 01:07 -25.89017 113.57562 123 ft 15 kts 358°
2026-04-30 01:07 -25.88911 113.57561 123 ft 14 kts 23°
2026-04-30 01:07 -25.88893 113.57646 123 ft 9 kts 87°
2026-04-30 01:08 -25.88896 113.57697 123 ft 5 kts 138°
2026-04-30 01:08 -25.88907 113.57688 123 ft 0 kts 292°